sensor_id;sensor_type;location;lat;lon;timestamp;P1;durP1;ratioP1;P2;durP2;ratioP2
77769;SDS011;66961;51.482;9.160;2023-07-13T00:01:47;8.55;;;2.65;;
77769;SDS011;66961;51.482;9.160;2023-07-13T00:04:13;5.65;;;2.28;;
77769;SDS011;66961;51.482;9.160;2023-07-13T00:06:39;7.78;;;2.85;;
77769;SDS011;66961;51.482;9.160;2023-07-13T00:09:04;5.33;;;2.50;;
77769;SDS011;66961;51.482;9.160;2023-07-13T00:11:29;3.87;;;2.20;;
77769;SDS011;66961;51.482;9.160;2023-07-13T00:13:54;4.67;;;2.27;;
77769;SDS011;66961;51.482;9.160;2023-07-13T00:16:20;7.70;;;2.80;;
77769;SDS011;66961;51.482;9.160;2023-07-13T00:18:45;5.00;;;2.40;;
77769;SDS011;66961;51.482;9.160;2023-07-13T00:21:11;3.38;;;2.08;;
77769;SDS011;66961;51.482;9.160;2023-07-13T00:23:38;8.05;;;2.55;;
77769;SDS011;66961;51.482;9.160;2023-07-13T00:26:06;5.68;;;2.42;;
77769;SDS011;66961;51.482;9.160;2023-07-13T00:28:33;4.72;;;2.20;;
77769;SDS011;66961;51.482;9.160;2023-07-13T00:30:59;5.53;;;2.00;;
77769;SDS011;66961;51.482;9.160;2023-07-13T00:33:26;8.00;;;2.78;;
77769;SDS011;66961;51.482;9.160;2023-07-13T00:35:53;7.43;;;2.33;;
77769;SDS011;66961;51.482;9.160;2023-07-13T00:38:19;4.10;;;2.05;;
77769;SDS011;66961;51.482;9.160;2023-07-13T00:40:44;5.75;;;2.38;;
77769;SDS011;66961;51.482;9.160;2023-07-13T00:43:15;5.80;;;2.47;;
77769;SDS011;66961;51.482;9.160;2023-07-13T00:48:07;4.87;;;2.27;;
77769;SDS011;66961;51.482;9.160;2023-07-13T00:50:32;2.67;;;1.95;;
77769;SDS011;66961;51.482;9.160;2023-07-13T00:52:58;4.75;;;2.05;;
77769;SDS011;66961;51.482;9.160;2023-07-13T00:55:23;7.23;;;2.33;;
77769;SDS011;66961;51.482;9.160;2023-07-13T00:57:49;6.18;;;2.55;;
77769;SDS011;66961;51.482;9.160;2023-07-13T01:00:14;4.80;;;2.80;;
77769;SDS011;66961;51.482;9.160;2023-07-13T01:02:40;4.40;;;2.30;;
77769;SDS011;66961;51.482;9.160;2023-07-13T01:05:11;4.70;;;2.30;;
77769;SDS011;66961;51.482;9.160;2023-07-13T01:07:38;4.68;;;2.25;;
77769;SDS011;66961;51.482;9.160;2023-07-13T01:10:04;3.97;;;2.10;;
77769;SDS011;66961;51.482;9.160;2023-07-13T01:12:29;3.15;;;2.10;;
77769;SDS011;66961;51.482;9.160;2023-07-13T01:14:58;6.77;;;2.30;;
77769;SDS011;66961;51.482;9.160;2023-07-13T01:17:24;6.47;;;2.30;;
77769;SDS011;66961;51.482;9.160;2023-07-13T01:19:49;5.87;;;2.50;;
77769;SDS011;66961;51.482;9.160;2023-07-13T01:22:16;5.00;;;2.47;;
77769;SDS011;66961;51.482;9.160;2023-07-13T01:24:44;3.95;;;2.50;;
77769;SDS011;66961;51.482;9.160;2023-07-13T01:27:14;5.75;;;2.65;;
77769;SDS011;66961;51.482;9.160;2023-07-13T01:29:42;5.05;;;2.50;;
77769;SDS011;66961;51.482;9.160;2023-07-13T01:32:10;4.18;;;2.45;;
77769;SDS011;66961;51.482;9.160;2023-07-13T01:34:37;5.18;;;2.80;;
77769;SDS011;66961;51.482;9.160;2023-07-13T01:37:03;5.90;;;2.95;;
77769;SDS011;66961;51.482;9.160;2023-07-13T01:39:29;6.53;;;3.17;;
77769;SDS011;66961;51.482;9.160;2023-07-13T01:41:54;6.38;;;3.15;;
77769;SDS011;66961;51.482;9.160;2023-07-13T01:44:20;5.30;;;3.17;;
77769;SDS011;66961;51.482;9.160;2023-07-13T01:46:45;7.22;;;2.72;;
77769;SDS011;66961;51.482;9.160;2023-07-13T01:49:10;5.30;;;3.10;;
77769;SDS011;66961;51.482;9.160;2023-07-13T01:51:36;6.23;;;3.23;;
77769;SDS011;66961;51.482;9.160;2023-07-13T01:54:01;4.80;;;2.87;;
77769;SDS011;66961;51.482;9.160;2023-07-13T01:56:26;7.00;;;2.67;;
77769;SDS011;66961;51.482;9.160;2023-07-13T01:58:51;5.40;;;3.13;;
77769;SDS011;66961;51.482;9.160;2023-07-13T02:01:17;7.63;;;3.10;;
77769;SDS011;66961;51.482;9.160;2023-07-13T02:03:42;6.90;;;3.20;;
77769;SDS011;66961;51.482;9.160;2023-07-13T02:06:08;5.57;;;3.20;;
77769;SDS011;66961;51.482;9.160;2023-07-13T02:08:33;5.60;;;3.03;;
77769;SDS011;66961;51.482;9.160;2023-07-13T02:10:58;7.13;;;2.88;;
77769;SDS011;66961;51.482;9.160;2023-07-13T02:13:24;6.78;;;3.28;;
77769;SDS011;66961;51.482;9.160;2023-07-13T02:15:52;7.70;;;2.83;;
77769;SDS011;66961;51.482;9.160;2023-07-13T02:18:17;5.90;;;3.30;;
77769;SDS011;66961;51.482;9.160;2023-07-13T02:20:43;9.00;;;3.00;;
77769;SDS011;66961;51.482;9.160;2023-07-13T02:23:09;7.88;;;2.90;;
77769;SDS011;66961;51.482;9.160;2023-07-13T02:25:34;7.95;;;2.95;;
77769;SDS011;66961;51.482;9.160;2023-07-13T02:27:59;7.00;;;3.20;;
77769;SDS011;66961;51.482;9.160;2023-07-13T02:30:26;9.33;;;3.10;;
77769;SDS011;66961;51.482;9.160;2023-07-13T02:32:52;4.22;;;2.78;;
77769;SDS011;66961;51.482;9.160;2023-07-13T02:35:17;7.80;;;3.30;;
77769;SDS011;66961;51.482;9.160;2023-07-13T02:37:42;6.10;;;3.10;;
77769;SDS011;66961;51.482;9.160;2023-07-13T02:40:08;5.27;;;2.67;;
77769;SDS011;66961;51.482;9.160;2023-07-13T02:42:34;4.43;;;2.83;;
77769;SDS011;66961;51.482;9.160;2023-07-13T02:44:59;5.88;;;3.10;;
77769;SDS011;66961;51.482;9.160;2023-07-13T02:47:25;9.05;;;2.83;;
77769;SDS011;66961;51.482;9.160;2023-07-13T02:49:50;9.23;;;3.40;;
77769;SDS011;66961;51.482;9.160;2023-07-13T02:52:15;6.53;;;2.97;;
77769;SDS011;66961;51.482;9.160;2023-07-13T02:54:40;6.47;;;3.03;;
77769;SDS011;66961;51.482;9.160;2023-07-13T02:57:06;6.63;;;3.07;;
77769;SDS011;66961;51.482;9.160;2023-07-13T02:59:31;5.38;;;2.63;;
77769;SDS011;66961;51.482;9.160;2023-07-13T03:01:57;6.53;;;3.37;;
77769;SDS011;66961;51.482;9.160;2023-07-13T03:04:22;3.17;;;2.87;;
77769;SDS011;66961;51.482;9.160;2023-07-13T03:06:47;6.70;;;3.40;;
77769;SDS011;66961;51.482;9.160;2023-07-13T03:09:12;5.07;;;3.60;;
77769;SDS011;66961;51.482;9.160;2023-07-13T03:11:38;5.28;;;2.90;;
77769;SDS011;66961;51.482;9.160;2023-07-13T03:14:03;8.37;;;3.50;;
77769;SDS011;66961;51.482;9.160;2023-07-13T03:16:29;7.32;;;2.85;;
77769;SDS011;66961;51.482;9.160;2023-07-13T03:18:54;5.00;;;3.17;;
77769;SDS011;66961;51.482;9.160;2023-07-13T03:21:19;8.52;;;3.10;;
77769;SDS011;66961;51.482;9.160;2023-07-13T03:23:45;6.07;;;3.20;;
77769;SDS011;66961;51.482;9.160;2023-07-13T03:26:12;9.02;;;3.03;;
77769;SDS011;66961;51.482;9.160;2023-07-13T03:28:43;5.97;;;2.75;;
77769;SDS011;66961;51.482;9.160;2023-07-13T03:31:10;7.10;;;3.13;;
77769;SDS011;66961;51.482;9.160;2023-07-13T03:33:37;6.00;;;3.40;;
77769;SDS011;66961;51.482;9.160;2023-07-13T03:36:03;6.60;;;3.15;;
77769;SDS011;66961;51.482;9.160;2023-07-13T03:38:30;10.40;;;3.22;;
77769;SDS011;66961;51.482;9.160;2023-07-13T03:40:56;5.35;;;3.58;;
77769;SDS011;66961;51.482;9.160;2023-07-13T03:43:21;8.50;;;3.70;;
77769;SDS011;66961;51.482;9.160;2023-07-13T03:45:46;9.07;;;3.57;;
77769;SDS011;66961;51.482;9.160;2023-07-13T03:48:12;5.13;;;3.13;;
77769;SDS011;66961;51.482;9.160;2023-07-13T03:50:38;5.13;;;3.30;;
77769;SDS011;66961;51.482;9.160;2023-07-13T03:53:03;8.23;;;3.57;;
77769;SDS011;66961;51.482;9.160;2023-07-13T03:55:29;7.65;;;3.15;;
77769;SDS011;66961;51.482;9.160;2023-07-13T03:57:57;4.37;;;3.50;;
77769;SDS011;66961;51.482;9.160;2023-07-13T04:00:24;8.57;;;3.63;;
77769;SDS011;66961;51.482;9.160;2023-07-13T04:02:50;8.63;;;3.60;;
77769;SDS011;66961;51.482;9.160;2023-07-13T04:05:15;6.85;;;4.05;;
77769;SDS011;66961;51.482;9.160;2023-07-13T04:07:40;5.50;;;3.70;;
77769;SDS011;66961;51.482;9.160;2023-07-13T04:10:06;6.63;;;3.47;;
77769;SDS011;66961;51.482;9.160;2023-07-13T04:12:31;5.47;;;3.75;;
77769;SDS011;66961;51.482;9.160;2023-07-13T04:14:57;7.82;;;3.53;;
77769;SDS011;66961;51.482;9.160;2023-07-13T04:17:22;6.47;;;3.03;;
77769;SDS011;66961;51.482;9.160;2023-07-13T04:19:47;5.50;;;3.30;;
77769;SDS011;66961;51.482;9.160;2023-07-13T04:22:12;7.00;;;3.03;;
77769;SDS011;66961;51.482;9.160;2023-07-13T04:24:38;4.67;;;2.70;;
77769;SDS011;66961;51.482;9.160;2023-07-13T04:27:03;6.53;;;2.80;;
77769;SDS011;66961;51.482;9.160;2023-07-13T04:29:29;5.75;;;2.55;;
77769;SDS011;66961;51.482;9.160;2023-07-13T04:31:54;9.10;;;2.50;;
77769;SDS011;66961;51.482;9.160;2023-07-13T04:34:19;6.87;;;2.40;;
77769;SDS011;66961;51.482;9.160;2023-07-13T04:36:44;10.07;;;3.03;;
77769;SDS011;66961;51.482;9.160;2023-07-13T04:39:10;6.50;;;2.20;;
77769;SDS011;66961;51.482;9.160;2023-07-13T04:41:35;6.05;;;2.30;;
77769;SDS011;66961;51.482;9.160;2023-07-13T04:44:00;5.67;;;2.27;;
77769;SDS011;66961;51.482;9.160;2023-07-13T04:46:26;4.70;;;2.00;;
77769;SDS011;66961;51.482;9.160;2023-07-13T04:48:51;3.30;;;1.67;;
77769;SDS011;66961;51.482;9.160;2023-07-13T04:51:16;5.75;;;1.90;;
77769;SDS011;66961;51.482;9.160;2023-07-13T04:53:41;7.50;;;2.50;;
77769;SDS011;66961;51.482;9.160;2023-07-13T04:56:07;6.43;;;2.00;;
77769;SDS011;66961;51.482;9.160;2023-07-13T04:58:32;6.33;;;1.83;;
77769;SDS011;66961;51.482;9.160;2023-07-13T05:00:59;3.38;;;1.80;;
77769;SDS011;66961;51.482;9.160;2023-07-13T05:03:28;8.68;;;2.30;;
77769;SDS011;66961;51.482;9.160;2023-07-13T05:05:57;3.05;;;1.75;;
77769;SDS011;66961;51.482;9.160;2023-07-13T05:08:24;6.03;;;1.80;;
77769;SDS011;66961;51.482;9.160;2023-07-13T05:10:50;8.00;;;1.80;;
77769;SDS011;66961;51.482;9.160;2023-07-13T05:13:16;2.67;;;1.52;;
77769;SDS011;66961;51.482;9.160;2023-07-13T05:15:41;4.37;;;1.70;;
77769;SDS011;66961;51.482;9.160;2023-07-13T05:18:06;4.77;;;1.40;;
77769;SDS011;66961;51.482;9.160;2023-07-13T05:20:31;5.07;;;1.60;;
77769;SDS011;66961;51.482;9.160;2023-07-13T05:22:57;8.33;;;1.60;;
77769;SDS011;66961;51.482;9.160;2023-07-13T05:25:22;7.10;;;1.60;;
77769;SDS011;66961;51.482;9.160;2023-07-13T05:27:47;5.60;;;1.30;;
77769;SDS011;66961;51.482;9.160;2023-07-13T05:30:13;3.77;;;1.63;;
77769;SDS011;66961;51.482;9.160;2023-07-13T05:32:38;4.88;;;1.60;;
77769;SDS011;66961;51.482;9.160;2023-07-13T05:35:04;3.53;;;1.38;;
77769;SDS011;66961;51.482;9.160;2023-07-13T05:37:29;5.28;;;1.38;;
77769;SDS011;66961;51.482;9.160;2023-07-13T05:39:55;5.00;;;1.30;;
77769;SDS011;66961;51.482;9.160;2023-07-13T05:42:20;4.50;;;1.10;;
77769;SDS011;66961;51.482;9.160;2023-07-13T05:44:45;5.03;;;1.20;;
77769;SDS011;66961;51.482;9.160;2023-07-13T05:47:10;6.83;;;1.30;;
77769;SDS011;66961;51.482;9.160;2023-07-13T05:49:36;4.93;;;1.50;;
77769;SDS011;66961;51.482;9.160;2023-07-13T05:52:01;4.13;;;1.50;;
77769;SDS011;66961;51.482;9.160;2023-07-13T05:54:26;3.83;;;1.10;;
77769;SDS011;66961;51.482;9.160;2023-07-13T05:56:52;7.15;;;1.63;;
77769;SDS011;66961;51.482;9.160;2023-07-13T05:59:17;4.00;;;1.30;;
77769;SDS011;66961;51.482;9.160;2023-07-13T06:01:43;4.43;;;1.73;;
77769;SDS011;66961;51.482;9.160;2023-07-13T06:04:08;5.75;;;1.63;;
77769;SDS011;66961;51.482;9.160;2023-07-13T06:06:33;4.22;;;1.15;;
77769;SDS011;66961;51.482;9.160;2023-07-13T06:08:59;3.87;;;1.40;;
77769;SDS011;66961;51.482;9.160;2023-07-13T06:11:25;3.60;;;1.20;;
77769;SDS011;66961;51.482;9.160;2023-07-13T06:13:52;4.28;;;1.33;;
77769;SDS011;66961;51.482;9.160;2023-07-13T06:16:17;4.13;;;1.70;;
77769;SDS011;66961;51.482;9.160;2023-07-13T06:18:42;5.20;;;1.50;;
77769;SDS011;66961;51.482;9.160;2023-07-13T06:21:12;2.90;;;1.30;;
77769;SDS011;66961;51.482;9.160;2023-07-13T06:23:39;5.97;;;1.40;;
77769;SDS011;66961;51.482;9.160;2023-07-13T06:26:05;4.65;;;1.23;;
77769;SDS011;66961;51.482;9.160;2023-07-13T06:28:32;5.53;;;1.35;;
77769;SDS011;66961;51.482;9.160;2023-07-13T06:30:58;4.55;;;1.50;;
77769;SDS011;66961;51.482;9.160;2023-07-13T06:33:23;4.75;;;1.30;;
77769;SDS011;66961;51.482;9.160;2023-07-13T06:35:49;6.18;;;1.63;;
77769;SDS011;66961;51.482;9.160;2023-07-13T06:38:14;4.60;;;1.33;;
77769;SDS011;66961;51.482;9.160;2023-07-13T06:40:39;7.63;;;1.25;;
77769;SDS011;66961;51.482;9.160;2023-07-13T06:43:06;4.30;;;1.30;;
77769;SDS011;66961;51.482;9.160;2023-07-13T06:45:32;6.43;;;1.20;;
77769;SDS011;66961;51.482;9.160;2023-07-13T06:48:05;3.35;;;1.20;;
77769;SDS011;66961;51.482;9.160;2023-07-13T06:50:30;5.03;;;1.00;;
77769;SDS011;66961;51.482;9.160;2023-07-13T06:52:55;3.33;;;0.90;;
77769;SDS011;66961;51.482;9.160;2023-07-13T06:55:21;2.07;;;0.70;;
77769;SDS011;66961;51.482;9.160;2023-07-13T06:57:46;4.10;;;0.90;;
77769;SDS011;66961;51.482;9.160;2023-07-13T07:00:11;4.47;;;1.03;;
77769;SDS011;66961;51.482;9.160;2023-07-13T07:02:37;2.85;;;0.80;;
77769;SDS011;66961;51.482;9.160;2023-07-13T07:05:02;7.40;;;1.13;;
77769;SDS011;66961;51.482;9.160;2023-07-13T07:07:28;3.15;;;0.70;;
77769;SDS011;66961;51.482;9.160;2023-07-13T07:09:53;3.45;;;1.20;;
77769;SDS011;66961;51.482;9.160;2023-07-13T07:12:18;3.13;;;1.40;;
77769;SDS011;66961;51.482;9.160;2023-07-13T07:14:44;2.33;;;0.77;;
77769;SDS011;66961;51.482;9.160;2023-07-13T07:17:09;3.55;;;0.88;;
77769;SDS011;66961;51.482;9.160;2023-07-13T07:19:34;1.83;;;0.60;;
77769;SDS011;66961;51.482;9.160;2023-07-13T07:22:00;3.05;;;0.77;;
77769;SDS011;66961;51.482;9.160;2023-07-13T07:24:25;3.20;;;0.80;;
77769;SDS011;66961;51.482;9.160;2023-07-13T07:26:50;3.67;;;0.70;;
77769;SDS011;66961;51.482;9.160;2023-07-13T07:29:16;2.10;;;0.80;;
77769;SDS011;66961;51.482;9.160;2023-07-13T07:31:41;2.50;;;1.00;;
77769;SDS011;66961;51.482;9.160;2023-07-13T07:34:06;2.70;;;0.60;;
77769;SDS011;66961;51.482;9.160;2023-07-13T07:36:31;3.43;;;1.03;;
77769;SDS011;66961;51.482;9.160;2023-07-13T07:38:57;3.88;;;0.85;;
77769;SDS011;66961;51.482;9.160;2023-07-13T07:41:22;3.40;;;0.90;;
77769;SDS011;66961;51.482;9.160;2023-07-13T07:43:47;3.03;;;0.80;;
77769;SDS011;66961;51.482;9.160;2023-07-13T07:46:13;3.63;;;0.82;;
77769;SDS011;66961;51.482;9.160;2023-07-13T07:48:38;4.05;;;1.02;;
77769;SDS011;66961;51.482;9.160;2023-07-13T07:51:03;2.97;;;1.00;;
77769;SDS011;66961;51.482;9.160;2023-07-13T07:53:29;4.30;;;1.10;;
77769;SDS011;66961;51.482;9.160;2023-07-13T07:55:54;5.28;;;0.98;;
77769;SDS011;66961;51.482;9.160;2023-07-13T07:58:19;2.10;;;0.70;;
77769;SDS011;66961;51.482;9.160;2023-07-13T08:00:44;3.93;;;1.00;;
77769;SDS011;66961;51.482;9.160;2023-07-13T08:03:10;2.80;;;0.80;;
77769;SDS011;66961;51.482;9.160;2023-07-13T08:05:36;3.80;;;0.70;;
77769;SDS011;66961;51.482;9.160;2023-07-13T08:08:01;2.38;;;0.70;;
77769;SDS011;66961;51.482;9.160;2023-07-13T08:10:27;3.63;;;0.90;;
77769;SDS011;66961;51.482;9.160;2023-07-13T08:12:52;2.78;;;0.80;;
77769;SDS011;66961;51.482;9.160;2023-07-13T08:15:18;4.82;;;1.20;;
77769;SDS011;66961;51.482;9.160;2023-07-13T08:17:43;2.78;;;0.80;;
77769;SDS011;66961;51.482;9.160;2023-07-13T08:20:09;2.10;;;0.73;;
77769;SDS011;66961;51.482;9.160;2023-07-13T08:22:34;1.55;;;0.70;;
77769;SDS011;66961;51.482;9.160;2023-07-13T08:25:00;2.83;;;0.73;;
77769;SDS011;66961;51.482;9.160;2023-07-13T08:27:26;2.53;;;0.70;;
77769;SDS011;66961;51.482;9.160;2023-07-13T08:29:53;3.25;;;0.75;;
77769;SDS011;66961;51.482;9.160;2023-07-13T08:32:19;3.67;;;0.80;;
77769;SDS011;66961;51.482;9.160;2023-07-13T08:34:46;1.95;;;0.50;;
77769;SDS011;66961;51.482;9.160;2023-07-13T08:37:11;3.85;;;0.70;;
77769;SDS011;66961;51.482;9.160;2023-07-13T08:39:37;3.17;;;0.73;;
77769;SDS011;66961;51.482;9.160;2023-07-13T08:42:07;1.88;;;0.75;;
77769;SDS011;66961;51.482;9.160;2023-07-13T08:44:57;2.45;;;0.77;;
77769;SDS011;66961;51.482;9.160;2023-07-13T08:47:53;3.60;;;0.93;;
77769;SDS011;66961;51.482;9.160;2023-07-13T08:50:41;1.80;;;0.68;;
77769;SDS011;66961;51.482;9.160;2023-07-13T08:53:21;4.75;;;1.00;;
77769;SDS011;66961;51.482;9.160;2023-07-13T08:55:49;3.58;;;0.80;;
77769;SDS011;66961;51.482;9.160;2023-07-13T08:58:21;2.60;;;0.68;;
77769;SDS011;66961;51.482;9.160;2023-07-13T09:00:54;1.58;;;0.70;;
77769;SDS011;66961;51.482;9.160;2023-07-13T09:03:25;2.75;;;0.80;;
77769;SDS011;66961;51.482;9.160;2023-07-13T09:05:57;3.80;;;1.00;;
77769;SDS011;66961;51.482;9.160;2023-07-13T09:11:25;2.60;;;1.35;;
77769;SDS011;66961;51.482;9.160;2023-07-13T09:14:16;2.65;;;1.00;;
77769;SDS011;66961;51.482;9.160;2023-07-13T09:17:03;3.88;;;0.90;;
77769;SDS011;66961;51.482;9.160;2023-07-13T09:19:33;2.88;;;0.60;;
77769;SDS011;66961;51.482;9.160;2023-07-13T09:21:59;4.50;;;1.08;;
77769;SDS011;66961;51.482;9.160;2023-07-13T09:27:14;2.17;;;0.70;;
77769;SDS011;66961;51.482;9.160;2023-07-13T09:29:49;3.50;;;0.98;;
77769;SDS011;66961;51.482;9.160;2023-07-13T09:32:21;2.53;;;0.75;;
77769;SDS011;66961;51.482;9.160;2023-07-13T09:34:50;2.20;;;0.98;;
77769;SDS011;66961;51.482;9.160;2023-07-13T09:37:16;2.70;;;0.90;;
77769;SDS011;66961;51.482;9.160;2023-07-13T09:39:42;2.70;;;0.90;;
77769;SDS011;66961;51.482;9.160;2023-07-13T09:42:12;2.97;;;0.70;;
77769;SDS011;66961;51.482;9.160;2023-07-13T09:44:56;2.55;;;1.02;;
77769;SDS011;66961;51.482;9.160;2023-07-13T09:47:27;3.50;;;0.90;;
77769;SDS011;66961;51.482;9.160;2023-07-13T09:49:55;2.33;;;0.90;;
77769;SDS011;66961;51.482;9.160;2023-07-13T09:52:22;2.38;;;0.80;;
77769;SDS011;66961;51.482;9.160;2023-07-13T09:54:48;2.90;;;0.90;;
77769;SDS011;66961;51.482;9.160;2023-07-13T09:57:16;2.47;;;1.00;;
77769;SDS011;66961;51.482;9.160;2023-07-13T09:59:44;3.28;;;0.95;;
77769;SDS011;66961;51.482;9.160;2023-07-13T10:02:23;4.20;;;1.00;;
77769;SDS011;66961;51.482;9.160;2023-07-13T10:07:24;4.30;;;0.90;;
77769;SDS011;66961;51.482;9.160;2023-07-13T10:09:56;2.30;;;0.90;;
77769;SDS011;66961;51.482;9.160;2023-07-13T10:12:23;3.95;;;1.08;;
77769;SDS011;66961;51.482;9.160;2023-07-13T10:14:57;2.65;;;0.85;;
77769;SDS011;66961;51.482;9.160;2023-07-13T10:17:26;2.88;;;0.85;;
77769;SDS011;66961;51.482;9.160;2023-07-13T10:19:55;1.75;;;0.95;;
77769;SDS011;66961;51.482;9.160;2023-07-13T10:22:23;2.47;;;1.00;;
77769;SDS011;66961;51.482;9.160;2023-07-13T10:24:54;4.45;;;1.20;;
77769;SDS011;66961;51.482;9.160;2023-07-13T10:27:29;2.80;;;0.93;;
77769;SDS011;66961;51.482;9.160;2023-07-13T10:30:15;3.40;;;1.08;;
77769;SDS011;66961;51.482;9.160;2023-07-13T10:32:44;3.38;;;1.00;;
77769;SDS011;66961;51.482;9.160;2023-07-13T10:35:12;3.75;;;1.05;;
77769;SDS011;66961;51.482;9.160;2023-07-13T10:40:20;3.15;;;1.15;;
77769;SDS011;66961;51.482;9.160;2023-07-13T10:42:51;2.03;;;0.90;;
77769;SDS011;66961;51.482;9.160;2023-07-13T10:45:20;2.63;;;1.10;;
77769;SDS011;66961;51.482;9.160;2023-07-13T10:47:48;2.97;;;1.00;;
77769;SDS011;66961;51.482;9.160;2023-07-13T10:50:16;4.82;;;1.33;;
77769;SDS011;66961;51.482;9.160;2023-07-13T10:55:34;3.40;;;1.02;;
77769;SDS011;66961;51.482;9.160;2023-07-13T10:58:32;2.75;;;1.17;;
77769;SDS011;66961;51.482;9.160;2023-07-13T11:03:33;2.40;;;1.00;;
77769;SDS011;66961;51.482;9.160;2023-07-13T11:06:11;3.63;;;1.30;;
77769;SDS011;66961;51.482;9.160;2023-07-13T11:16:33;3.90;;;1.23;;
77769;SDS011;66961;51.482;9.160;2023-07-13T11:21:29;3.17;;;1.33;;
77769;SDS011;66961;51.482;9.160;2023-07-13T11:24:01;3.88;;;1.40;;
77769;SDS011;66961;51.482;9.160;2023-07-13T11:31:51;2.58;;;1.25;;
77769;SDS011;66961;51.482;9.160;2023-07-13T11:34:19;3.00;;;1.40;;
77769;SDS011;66961;51.482;9.160;2023-07-13T11:36:51;5.13;;;1.75;;
77769;SDS011;66961;51.482;9.160;2023-07-13T11:39:18;5.70;;;1.67;;
77769;SDS011;66961;51.482;9.160;2023-07-13T11:41:51;3.05;;;1.10;;
77769;SDS011;66961;51.482;9.160;2023-07-13T11:44:19;5.28;;;1.40;;
77769;SDS011;66961;51.482;9.160;2023-07-13T11:46:55;2.67;;;1.33;;
77769;SDS011;66961;51.482;9.160;2023-07-13T11:49:23;2.38;;;1.40;;
77769;SDS011;66961;51.482;9.160;2023-07-13T11:51:50;3.90;;;1.55;;
77769;SDS011;66961;51.482;9.160;2023-07-13T11:54:43;5.47;;;1.50;;
77769;SDS011;66961;51.482;9.160;2023-07-13T11:59:56;2.60;;;1.23;;
77769;SDS011;66961;51.482;9.160;2023-07-13T12:02:34;2.63;;;1.17;;
77769;SDS011;66961;51.482;9.160;2023-07-13T12:05:03;3.53;;;1.65;;
77769;SDS011;66961;51.482;9.160;2023-07-13T12:07:31;4.78;;;1.40;;
77769;SDS011;66961;51.482;9.160;2023-07-13T12:10:40;3.97;;;1.50;;
77769;SDS011;66961;51.482;9.160;2023-07-13T12:15:21;3.38;;;1.40;;
77769;SDS011;66961;51.482;9.160;2023-07-13T12:17:48;1.92;;;1.02;;
77769;SDS011;66961;51.482;9.160;2023-07-13T12:20:23;4.78;;;1.30;;
77769;SDS011;66961;51.482;9.160;2023-07-13T12:22:50;4.00;;;1.70;;
77769;SDS011;66961;51.482;9.160;2023-07-13T12:25:16;1.77;;;1.33;;
77769;SDS011;66961;51.482;9.160;2023-07-13T12:27:42;2.60;;;1.33;;
77769;SDS011;66961;51.482;9.160;2023-07-13T12:30:23;4.95;;;2.00;;
77769;SDS011;66961;51.482;9.160;2023-07-13T12:32:56;3.45;;;1.38;;
77769;SDS011;66961;51.482;9.160;2023-07-13T12:35:26;3.80;;;1.52;;
77769;SDS011;66961;51.482;9.160;2023-07-13T12:37:54;4.07;;;1.50;;
77769;SDS011;66961;51.482;9.160;2023-07-13T12:40:24;2.33;;;1.40;;
77769;SDS011;66961;51.482;9.160;2023-07-13T12:42:53;2.53;;;1.30;;
77769;SDS011;66961;51.482;9.160;2023-07-13T12:45:20;2.30;;;1.40;;
77769;SDS011;66961;51.482;9.160;2023-07-13T12:47:49;3.63;;;1.63;;
77769;SDS011;66961;51.482;9.160;2023-07-13T12:50:20;3.45;;;1.38;;
77769;SDS011;66961;51.482;9.160;2023-07-13T12:52:51;2.88;;;1.33;;
77769;SDS011;66961;51.482;9.160;2023-07-13T12:55:20;2.78;;;1.77;;
77769;SDS011;66961;51.482;9.160;2023-07-13T12:57:56;3.83;;;1.65;;
77769;SDS011;66961;51.482;9.160;2023-07-13T13:00:30;2.63;;;1.60;;
77769;SDS011;66961;51.482;9.160;2023-07-13T13:02:57;3.20;;;1.42;;
77769;SDS011;66961;51.482;9.160;2023-07-13T13:05:25;2.33;;;1.40;;
77769;SDS011;66961;51.482;9.160;2023-07-13T13:07:51;4.18;;;1.20;;
77769;SDS011;66961;51.482;9.160;2023-07-13T13:10:16;3.22;;;1.83;;
77769;SDS011;66961;51.482;9.160;2023-07-13T13:12:42;5.25;;;1.73;;
77769;SDS011;66961;51.482;9.160;2023-07-13T13:15:07;3.50;;;1.73;;
77769;SDS011;66961;51.482;9.160;2023-07-13T13:17:34;3.33;;;1.92;;
77769;SDS011;66961;51.482;9.160;2023-07-13T13:19:59;4.65;;;1.70;;
77769;SDS011;66961;51.482;9.160;2023-07-13T13:22:25;2.83;;;1.42;;
77769;SDS011;66961;51.482;9.160;2023-07-13T13:24:50;7.53;;;1.60;;
77769;SDS011;66961;51.482;9.160;2023-07-13T13:27:22;2.20;;;1.45;;
77769;SDS011;66961;51.482;9.160;2023-07-13T13:29:49;3.88;;;1.90;;
77769;SDS011;66961;51.482;9.160;2023-07-13T13:32:15;3.35;;;1.70;;
77769;SDS011;66961;51.482;9.160;2023-07-13T13:34:41;4.18;;;1.80;;
77769;SDS011;66961;51.482;9.160;2023-07-13T13:37:20;4.05;;;2.00;;
77769;SDS011;66961;51.482;9.160;2023-07-13T13:39:47;2.85;;;2.05;;
77769;SDS011;66961;51.482;9.160;2023-07-13T13:42:13;3.75;;;1.75;;
77769;SDS011;66961;51.482;9.160;2023-07-13T13:44:39;3.33;;;1.58;;
77769;SDS011;66961;51.482;9.160;2023-07-13T13:47:04;3.88;;;1.80;;
77769;SDS011;66961;51.482;9.160;2023-07-13T13:49:30;5.53;;;1.70;;
77769;SDS011;66961;51.482;9.160;2023-07-13T13:51:56;3.80;;;1.80;;
77769;SDS011;66961;51.482;9.160;2023-07-13T13:54:22;3.67;;;1.80;;
77769;SDS011;66961;51.482;9.160;2023-07-13T13:56:50;3.13;;;1.77;;
77769;SDS011;66961;51.482;9.160;2023-07-13T13:59:16;2.28;;;1.50;;
77769;SDS011;66961;51.482;9.160;2023-07-13T14:01:42;2.63;;;1.60;;
77769;SDS011;66961;51.482;9.160;2023-07-13T14:04:17;3.67;;;1.52;;
77769;SDS011;66961;51.482;9.160;2023-07-13T14:06:44;3.72;;;1.60;;
77769;SDS011;66961;51.482;9.160;2023-07-13T14:09:14;3.00;;;1.30;;
77769;SDS011;66961;51.482;9.160;2023-07-13T14:11:41;5.90;;;1.40;;
77769;SDS011;66961;51.482;9.160;2023-07-13T14:14:08;4.00;;;1.45;;
77769;SDS011;66961;51.482;9.160;2023-07-13T14:16:39;2.20;;;1.13;;
77769;SDS011;66961;51.482;9.160;2023-07-13T14:19:04;3.85;;;1.50;;
77769;SDS011;66961;51.482;9.160;2023-07-13T14:21:29;4.38;;;1.23;;
77769;SDS011;66961;51.482;9.160;2023-07-13T14:23:55;5.60;;;1.52;;
77769;SDS011;66961;51.482;9.160;2023-07-13T14:26:23;3.13;;;1.40;;
77769;SDS011;66961;51.482;9.160;2023-07-13T14:28:52;3.65;;;1.40;;
77769;SDS011;66961;51.482;9.160;2023-07-13T14:31:21;4.07;;;1.38;;
77769;SDS011;66961;51.482;9.160;2023-07-13T14:33:47;2.80;;;1.23;;
77769;SDS011;66961;51.482;9.160;2023-07-13T14:38:44;2.08;;;1.13;;
77769;SDS011;66961;51.482;9.160;2023-07-13T14:41:09;1.57;;;0.87;;
77769;SDS011;66961;51.482;9.160;2023-07-13T14:43:35;3.30;;;1.17;;
77769;SDS011;66961;51.482;9.160;2023-07-13T14:46:00;3.50;;;1.07;;
77769;SDS011;66961;51.482;9.160;2023-07-13T14:48:25;1.95;;;0.75;;
77769;SDS011;66961;51.482;9.160;2023-07-13T14:50:54;2.72;;;0.90;;
77769;SDS011;66961;51.482;9.160;2023-07-13T14:53:21;1.98;;;0.90;;
77769;SDS011;66961;51.482;9.160;2023-07-13T14:55:46;2.03;;;0.95;;
77769;SDS011;66961;51.482;9.160;2023-07-13T14:58:12;3.08;;;0.95;;
77769;SDS011;66961;51.482;9.160;2023-07-13T15:00:37;3.25;;;1.02;;
77769;SDS011;66961;51.482;9.160;2023-07-13T15:03:03;2.17;;;0.70;;
77769;SDS011;66961;51.482;9.160;2023-07-13T15:05:29;2.47;;;0.90;;
77769;SDS011;66961;51.482;9.160;2023-07-13T15:07:57;2.10;;;0.90;;
77769;SDS011;66961;51.482;9.160;2023-07-13T15:10:25;3.50;;;1.00;;
77769;SDS011;66961;51.482;9.160;2023-07-13T15:12:57;1.63;;;0.90;;
77769;SDS011;66961;51.482;9.160;2023-07-13T15:15:44;3.50;;;0.90;;
77769;SDS011;66961;51.482;9.160;2023-07-13T15:18:11;2.78;;;1.15;;
77769;SDS011;66961;51.482;9.160;2023-07-13T15:20:39;5.20;;;1.05;;
77769;SDS011;66961;51.482;9.160;2023-07-13T15:23:04;2.55;;;0.98;;
77769;SDS011;66961;51.482;9.160;2023-07-13T15:25:31;3.40;;;1.20;;
77769;SDS011;66961;51.482;9.160;2023-07-13T15:27:57;3.42;;;1.15;;
77769;SDS011;66961;51.482;9.160;2023-07-13T15:30:25;2.25;;;1.02;;
77769;SDS011;66961;51.482;9.160;2023-07-13T15:32:52;2.80;;;1.52;;